Metar Cercanos

 

LEPA - Palma De Mallorc, Spain
Distance from station: ONO 38km
Actualización: Wed, 12-May-2021 3:00pm CEST
Few Clouds
Few Clouds
 Viento del O
Viento: O 39 km/h, Racha: 57 km/h
Temperatura: 22°C
Rocío: 9°C
Humedad: 44%
Barómetro: 1015 hPa
Clouds: Few Clouds
Visibility: 10 km
Cloud details: Few Clouds 853 m
2021/05/12 13:00 LEPA 121300Z 26021G31KT 220V280 9999 FEW028 22/09 Q1015 NOSIG
LEMH - Mahon/Menorca Is, Spain
Distance from station: ENE 105km
Actualización: Wed, 12-May-2021 3:00pm CEST
Few Clouds
Few Clouds
 Viento del SO
Viento: SO 33 km/h
Temperatura: 20°C
Rocío: 15°C
Humedad: 73%
Barómetro: 1014 hPa
Clouds: Few Clouds
Visibility: 10 km
Cloud details: Few Clouds 457 m
2021/05/12 13:00 LEMH 121300Z 22018KT 9999 FEW015 20/15 Q1014
 
LEIB - Ibiza/Es Codola, Spain
Distance from station: OSO 165km
Actualización: Wed, 12-May-2021 3:00pm CEST
Few Clouds
Few Clouds
 Viento del SO
Viento: SO 28 km/h
Temperatura: 21°C
Rocío: 16°C
Humedad: 73%
Barómetro: 1015 hPa
Clouds: Few Clouds
Visibility: 10 km
Cloud details: Few Clouds 914 m
2021/05/12 13:00 LEIB 121300Z 22015KT 180V240 9999 FEW030 21/16 Q1015 NOSIG
LEBL - Barcelona Airpor, Spain
Distance from station: NNO 225km
Actualización: Wed, 12-May-2021 3:00pm CEST
Few Clouds
Few Clouds
 Viento del SO
Viento: SO 50 km/h
Temperatura: 20°C
Rocío: 9°C
Humedad: 49%
Barómetro: 1011 hPa
Clouds: Few Clouds
Visibility: 10 km
Cloud details: Few Clouds 1219 m
2021/05/12 13:00 LEBL 121300Z 23027KT 9999 FEW040 20/09 Q1011 NOSIG
 
LEVC - Valencia (civ/Mi, Spain
Distance from station: NO 188km
Actualización: Wed, 12-May-2021 3:00pm CEST
Few Clouds
Few Clouds
 Viento del O
Viento: O 37 km/h
Temperatura: 25°C
Rocío: 6°C
Humedad: 30%
Barómetro: 1014 hPa
Clouds: Few Clouds
Visibility: 10 km
Cloud details: Few Clouds 1067 m
2021/05/12 13:00 LEVC 121300Z 27020KT 220V290 9999 FEW035 25/06 Q1014 NOSIG
LEGE - Gerona/Costa Bra, Spain
Distance from station: N 276km
Actualización: Wed, 12-May-2021 3:00pm CEST
Few Clouds
Few Clouds
 Viento del OSO
Viento: OSO 22 km/h, Racha: 46 km/h
Temperatura: 22°C
Rocío: 6°C
Humedad: 36%
Barómetro: 1009 hPa
Clouds: Few Clouds
Visibility: 10 km
Cloud details: Few Clouds 2195 m
2021/05/12 13:00 LEGE 121300Z 25012G25KT 200V300 9999 FEW072 22/06 Q1009
 
LEAL - Alicante/El Alte, Spain
Distance from station: OSO 344km
Actualización: Wed, 12-May-2021 3:00pm CEST
Despejado
Despejado
 Viento del S
Viento: S 28 km/h
Temperatura: 24°C
Rocío: 9°C
Humedad: 39%
Barómetro: 1015 hPa
Resumen: Despejado
Visibility: greater than 10 km
2021/05/12 13:00 LEAL 121300Z 18015KT 120V210 CAVOK 24/09 Q1015 NOSIG
LEAM - Almeria Airport, Spain
Distance from station: SSO 56km
Actualización: Wed, 12-May-2021 3:00pm CEST
Despejado
Despejado
 Viento del SSO
Viento: SSO 30 km/h
Temperatura: 20°C
Rocío: 14°C
Humedad: 69%
Barómetro: 1017 hPa
Resumen: Despejado
Visibility: greater than 10 km
2021/05/12 13:00 LEAM 121300Z 21016KT 180V240 CAVOK 20/14 Q1017
 
LEZG - Zaragoza (mil/Ci, Spain
Distance from station: NO 431km
Actualización: Wed, 12-May-2021 3:00pm CEST
Parcialmente nuboso
Parcialmente nuboso
 Viento del O
Viento: O 33 km/h
Temperatura: 23°C
Rocío: 6°C
Humedad: 33%
Barómetro: 1012 hPa
Clouds: Parcialmente nuboso
Visibility: 10 km
Cloud details: Parcialmente nuboso 1981 m
2021/05/12 13:00 LEZG 121300Z 26018KT 9999 SCT065 23/06 Q1012
LEMD - Madrid/Barajas, Spain
Distance from station: ONO 234km
Actualización: Wed, 12-May-2021 3:00pm CEST
Muy nuboso
Muy nuboso
 Viento del SO
Viento: SO 22 km/h
Temperatura: 19°C
Rocío: 7°C
Humedad: 46%
Barómetro: 1017 hPa
Clouds: Muy nuboso
Visibility: 10 km
Cloud details: Few Clouds 1402 m
Parcialmente nuboso 2134 m
Muy nuboso 2438 m
2021/05/12 13:00 LEMD 121300Z 22012KT 190V250 9999 FEW046 SCT070 BKN080 19/07 Q1017 NOSIG
 
LEGR - Granada Airport, Spain
Distance from station: OSO 62km
Actualización: Wed, 12-May-2021 3:00pm CEST
Few Clouds
Few Clouds
 Viento del varies
Viento: varies 4 km/h
Temperatura: 23°C
Rocío: 8°C
Humedad: 38%
Barómetro: 1020 hPa
Clouds: Few Clouds
Visibility: 10 km
Cloud details: Few Clouds 1524 m
2021/05/12 13:00 LEGR 121300Z VRB02KT 9999 FEW050 23/08 Q1020
LEMG - Malaga (civ/Mil), Spain
Distance from station: OSO 227km
Actualización: Wed, 12-May-2021 3:00pm CEST
Despejado
Despejado
 Viento del ONO
Viento: ONO 19 km/h
Temperatura: 27°C
Rocío: 9°C
Humedad: 32%
Barómetro: 1018 hPa
Resumen: Despejado
Visibility: greater than 10 km
2021/05/12 13:00 LEMG 121300Z 29010KT 260V350 CAVOK 27/09 Q1018 NOSIG
 
LEZL - Sevilla (civ/Mil, Spain
Distance from station: S 318km
Actualización: Wed, 12-May-2021 3:00pm CEST
Despejado
Despejado
 Viento del SSO
Viento: SSO 11 km/h
Temperatura: 23°C
Rocío: 12°C
Humedad: 50%
Barómetro: 1020 hPa
Resumen: Despejado
Visibility: greater than 10 km
2021/05/12 13:00 LEZL 121300Z 21006KT CAVOK 23/12 Q1020 NOSIG
LEVT - Vitoria, Spain
Distance from station: NO 226km
Actualización: Wed, 12-May-2021 3:00pm CEST
Lluvia débil, Muy nuboso
Lluvia débil, Muy nuboso
 Viento del NNO
Viento: NNO 24 km/h
Temperatura: 12°C
Rocío: 11°C
Humedad: 94%
Barómetro: 1015 hPa
Resumen: Lluvia débil
Clouds: Muy nuboso
Visibility: 10 km
Cloud details: Few Clouds 427 m
Parcialmente nuboso 914 m
Muy nuboso 1524 m
2021/05/12 13:00 LEVT 121300Z 33013KT 9999 -RA FEW014 SCT030 BKN050 12/11 Q1015
 
LEBB - Bilbao/Sondica, Spain
Distance from station: NNO 235km
Actualización: Wed, 12-May-2021 3:00pm CEST
Parcialmente nuboso
Parcialmente nuboso
 Viento del ONO
Viento: ONO 35 km/h
Temperatura: 16°C
Rocío: 10°C
Humedad: 68%
Barómetro: 1015 hPa
Clouds: Parcialmente nuboso
Visibility: 10 km
Cloud details: Few Clouds 792 m
Parcialmente nuboso 1341 m
2021/05/12 13:00 LEBB 121300Z 29019KT 260V320 9999 FEW026 SCT044 16/10 Q1015 TEMPO 3000 RA BKN010
LESO - San Sebastian/Fu, Spain
Distance from station: N 231km
Actualización: Wed, 12-May-2021 3:06pm CEST
Rain drizzle, Muy nuboso
Rain drizzle, Muy nuboso
 Viento del OSO
Viento: OSO 28 km/h, Racha: 57 km/h
Temperatura: 14°C
Rocío: 12°C
Humedad: 88%
Barómetro: 1015 hPa
Resumen: Rain Drizzle
Clouds: Muy nuboso
Visibility: 7 km
Cloud details: Few Clouds 488 m
Parcialmente nuboso 823 m
Muy nuboso 1646 m
2021/05/12 13:06 LESO 121306Z 25015G31KT 200V290 7000 RADZ FEW016 SCT027 BKN054 14/12 Q1015
 
LEVD - Valladolid(Mil/C, Spain
Distance from station: ONO 239km
Actualización: Wed, 12-May-2021 3:00pm CEST
Muy nuboso
Muy nuboso
 Viento del O
Viento: O 43 km/h
Temperatura: 16°C
Rocío: 6°C
Humedad: 52%
Barómetro: 1016 hPa
Clouds: Muy nuboso
Visibility: 10 km
Cloud details: Muy nuboso 1219 m
2021/05/12 13:00 LEVD 121300Z 26023KT 230V300 9999 BKN040 16/06 Q1016
LESA - Salamanca (civ/M, Spain
Distance from station: ONO 349km
Actualización: Wed, 12-May-2021 3:00pm CEST
Parcialmente nuboso
Parcialmente nuboso
 Viento del O
Viento: O 37 km/h
Temperatura: 16°C
Rocío: 3°C
Humedad: 42%
Barómetro: 1019 hPa
Clouds: Parcialmente nuboso
Visibility: 10 km
Cloud details: Parcialmente nuboso 1372 m
2021/05/12 13:00 LESA 121300Z 28020KT 250V310 9999 SCT045 16/03 Q1019
 
LEXJ - Santander/Paraya, Spain
Distance from station: NNO 247km
Actualización: Wed, 12-May-2021 3:00pm CEST
Muy nuboso
Muy nuboso
 Viento del ONO
Viento: ONO 43 km/h, Racha: 63 km/h
Temperatura: 14°C
Rocío: 10°C
Humedad: 77%
Barómetro: 1016 hPa
Clouds: Muy nuboso
Visibility: 10 km
Cloud details: Few Clouds 610 m
Parcialmente nuboso 792 m
Muy nuboso 1067 m
2021/05/12 13:00 LEXJ 121300Z 29023G34KT 9999 FEW020 SCT026 BKN035 14/10 Q1016
LEAS - Asturias/Aviles, Spain
Distance from station: NO 214km
Actualización: Wed, 12-May-2021 3:00pm CEST
Parcialmente nuboso
Parcialmente nuboso
 Viento del ONO
Viento: ONO 44 km/h
Temperatura: 14°C
Rocío: 9°C
Humedad: 72%
Barómetro: 1017 hPa
Clouds: Parcialmente nuboso
Visibility: 10 km
Cloud details: Few Clouds 305 m
Parcialmente nuboso 1829 m
2021/05/12 13:00 LEAS 121300Z 30024KT 9999 FEW010 SCT060 14/09 Q1017 NOSIG
 
LECO - La Coruna/Alvedr, Spain
Distance from station: ONO 222km
Actualización: Wed, 12-May-2021 3:00pm CEST
Parcialmente nuboso
Parcialmente nuboso
 Viento del O
Viento: O 22 km/h
Temperatura: 15°C
Rocío: 8°C
Humedad: 63%
Barómetro: 1019 hPa
Clouds: Parcialmente nuboso
Visibility: 10 km
Cloud details: Few Clouds 1006 m
Parcialmente nuboso 1402 m
2021/05/12 13:00 LECO 121300Z 27012KT 220V330 9999 FEW033 SCT046 15/08 Q1019 NOSIG
LEVX - Vigo/Peinador, Spain
Distance from station: O 214km
Actualización: Wed, 12-May-2021 3:00pm CEST
Muy nuboso
Muy nuboso
 Viento del O
Viento: O 15 km/h
Temperatura: 14°C
Rocío: 8°C
Humedad: 67%
Barómetro: 1021 hPa
Clouds: Muy nuboso
Visibility: 10 km
Cloud details: Muy nuboso 853 m
2021/05/12 13:00 LEVX 121300Z 28008KT 230V360 9999 BKN028 14/08 Q1021 NOSIG